Date,TemperatureHighF,TemperatureAvgF,TemperatureLowF,DewpointHighF,DewpointAvgF,DewpointLowF,HumidityHigh,HumidityAvg,HumidityLow,PressureMaxIn,PressureMinIn,WindSpeedMaxMPH,WindSpeedAvgMPH,GustSpeedMaxMPH,PrecipitationSumIn
2013-9-1,101.4,86.0,72.9,75.6,71.2,66.9,96,65,36,29.91,29.79,2,1,6,0.00
2013-9-2,101.8,86.1,74.3,75.5,71.5,66.7,97,66,33,29.97,29.81,2,1,4,0.00
2013-9-3,102.7,85.7,71.0,73.7,68.8,64.6,91,61,31,30.00,29.86,2,0,4,0.00
2013-9-4,102.8,86.2,77.9,72.9,71.7,69.4,80,64,36,30.05,29.92,2,1,5,0.00
2013-9-5,99.4,82.5,71.1,75.1,71.6,69.0,95,72,41,30.09,29.97,3,0,5,0.00
2013-9-6,98.3,83.0,72.2,75.2,72.1,68.5,96,72,39,30.09,29.93,2,0,4,0.00
2013-9-7,99.2,83.1,73.8,75.7,72.8,70.6,94,74,41,30.03,29.88,3,1,6,0.00
2013-9-8,90.0,78.1,73.3,77.4,73.6,69.8,97,87,60,29.98,29.88,3,0,5,0.60
2013-9-9,93.4,78.2,71.4,75.9,72.4,70.4,98,84,52,29.99,29.91,3,0,7,0.02
2013-9-10,93.3,77.6,71.9,76.2,73.2,70.8,98,88,53,30.06,29.97,3,0,6,0.42
2013-9-11,95.2,82.0,71.7,77.4,72.6,66.2,99,76,40,30.09,29.98,2,1,4,0.00
2013-9-12,96.7,81.6,71.4,75.6,70.9,64.3,98,74,37,30.06,29.90,2,0,5,0.00
2013-9-13,97.5,82.6,72.8,71.5,65.7,-99.9,93,62,33,29.98,29.80,3,-11,4,0.00
2013-9-14,96.5,80.8,68.4,74.0,69.3,66.2,96,72,39,29.94,29.83,3,1,6,0.17
2013-9-15,94.6,80.6,71.9,76.7,73.2,71.2,99,80,48,30.00,29.91,2,0,6,0.01
2013-9-16,87.9,76.7,71.6,78.9,73.6,70.2,98,91,69,30.05,29.94,3,0,5,0.18
2013-9-17,90.1,79.0,72.6,78.5,73.8,71.8,99,86,59,30.05,29.93,2,0,5,0.00
2013-9-18,93.9,79.8,73.3,76.8,74.1,71.8,98,85,49,30.01,29.88,2,0,4,0.05
2013-9-19,91.5,79.7,74.4,80.5,75.7,73.6,99,89,62,29.95,29.80,2,0,3,0.12
2013-9-20,80.3,75.7,71.2,79.0,74.6,69.8,99,97,93,29.87,29.75,5,1,8,0.78
2013-9-21,85.9,74.7,65.6,70.2,64.4,55.0,94,73,41,29.92,29.82,5,3,10,0.00
2013-9-22,87.4,72.1,60.8,58.5,53.9,49.9,75,55,29,29.91,29.78,3,1,6,0.00
2013-9-23,91.6,72.5,57.7,61.2,55.7,52.7,85,59,29,29.85,29.76,2,0,4,0.00
2013-9-24,97.4,78.3,63.4,65.3,61.1,57.8,85,59,30,29.94,29.82,3,0,5,0.00
2013-9-25,97.3,80.7,66.8,68.5,63.8,59.5,87,60,34,29.90,29.78,2,0,5,0.00
2013-9-26,93.1,79.0,67.1,75.2,68.8,59.3,97,73,43,29.90,29.80,2,1,5,0.00
2013-9-27,90.1,80.6,75.1,82.1,76.1,73.2,96,87,70,29.91,29.81,2,1,5,0.22
2013-9-28,91.4,80.1,75.4,80.2,77.1,74.7,98,91,64,29.97,29.85,2,0,5,0.38
2013-9-29,78.7,71.6,66.3,74.8,69.1,65.8,99,92,76,30.04,29.93,7,2,8,3.80
2013-9-30,90.6,73.5,60.6,66.8,63.7,60.0,100,75,41,29.97,29.81,2,0,3,0.01